aviador You're here:

LFAQ Decoded Metar

ALBERT in FRANCE
Report Time2017-08-23 02:00:00
UTC Time2017-08-23 02:09:33
Flight Rules vfr VFR
Wind110° at 07 kt
W.Decomp.*RWY 09: 6.5 kt HW 2.5 kt RCW
W.Rank110° ranks 32
Current wind is above 110° avg. (6.8)
Visibility9999 m
Phenomena:N/A
Clouds:N/A
Expected CloudBase > 800 ft AGL from Temp-Dew spread
CeilingNone
Temp17°C (ISA +3)
Dew Point15°C (88% RH)
AAT16.1°C
QNH1014 hPa
Density Alt879 ft
Elevation364 ft
Report Wrong Elevation
Raw Report
METAR LFAQ 230200Z AUTO 11007KT CAVOK 17/15 Q1014=

Extra information for LFAQ:More info

Metar Taf Metar & Taf Last 4 Metars F.Rules Stats Wind Profile Meteogram Temp Stats Airport Information Weather charts Add Link Nearby VenuesMetar ALERT Operation Metar Decoded Social comments